createdAt,value
2023-10-10T00:02:20.446Z,68.88
2023-10-10T00:04:49.357Z,69.12
2023-10-10T00:07:18.204Z,69.27
2023-10-10T00:09:46.864Z,69.51
2023-10-10T00:12:20.336Z,69.74
2023-10-10T00:14:52.102Z,69.48
2023-10-10T00:17:22.240Z,69.39
2023-10-10T00:20:16.316Z,69.13
2023-10-10T00:22:48.104Z,69.05
2023-10-10T00:25:17.970Z,69.14
2023-10-10T00:27:47.658Z,68.94
2023-10-10T00:30:15.879Z,68.82
2023-10-10T00:32:46.398Z,68.73
2023-10-10T00:35:14.484Z,68.90
2023-10-10T00:37:44.986Z,68.62
2023-10-10T00:40:16.619Z,68.62
2023-10-10T00:42:44.448Z,68.77
2023-10-10T00:45:15.118Z,68.69
2023-10-10T00:47:54.086Z,68.61
2023-10-10T00:50:26.534Z,68.52
2023-10-10T00:52:55.136Z,68.40
2023-10-10T00:55:26.900Z,68.38
2023-10-10T00:58:00.258Z,68.57
2023-10-10T01:00:32.843Z,68.57
2023-10-10T01:03:20.301Z,68.46
2023-10-10T01:05:55.248Z,68.37
2023-10-10T01:08:28.132Z,68.54
2023-10-10T01:11:03.471Z,68.86
2023-10-10T01:13:32.171Z,69.10
2023-10-10T01:16:05.417Z,69.18
2023-10-10T01:18:40.672Z,69.25
2023-10-10T01:21:10.445Z,69.27
2023-10-10T01:23:39.097Z,69.47
2023-10-10T01:26:07.957Z,69.81
2023-10-10T01:28:36.204Z,70.06
2023-10-10T01:31:07.536Z,70.06
2023-10-10T01:33:43.690Z,70.21
2023-10-10T01:36:20.882Z,70.41
2023-10-10T01:39:01.381Z,70.47
2023-10-10T01:41:42.657Z,70.71
2023-10-10T01:44:14.431Z,70.67
2023-10-10T01:46:43.138Z,71.08
2023-10-10T01:49:22.066Z,71.25
2023-10-10T01:51:57.393Z,71.43
2023-10-10T01:54:36.042Z,71.82
2023-10-10T01:57:09.328Z,72.06
2023-10-10T01:59:39.684Z,72.15
2023-10-10T02:02:15.493Z,72.16
2023-10-10T02:04:45.772Z,72.52
2023-10-10T02:07:32.978Z,72.19
2023-10-10T02:10:14.803Z,72.42
2023-10-10T02:12:46.566Z,72.46
2023-10-10T02:15:19.403Z,72.29
2023-10-10T02:17:57.530Z,72.13
2023-10-10T02:20:28.708Z,72.49
2023-10-10T02:23:06.058Z,72.79
2023-10-10T02:25:37.210Z,72.80
2023-10-10T02:28:21.929Z,72.81
2023-10-10T02:30:51.193Z,73.09
2023-10-10T02:33:25.349Z,73.34
2023-10-10T02:36:00.076Z,73.32
2023-10-10T02:38:36.256Z,73.40
2023-10-10T02:41:23.701Z,73.39
2023-10-10T02:44:02.243Z,73.43
2023-10-10T02:46:37.799Z,73.02
2023-10-10T02:49:28.083Z,72.54
2023-10-10T02:51:58.705Z,71.84
2023-10-10T02:54:27.888Z,71.68
2023-10-10T02:56:59.258Z,71.68
2023-10-10T02:59:39.206Z,72.06
2023-10-10T03:02:20.812Z,72.36
2023-10-10T03:05:19.074Z,72.43
2023-10-10T03:07:53.255Z,72.48
2023-10-10T03:10:25.064Z,72.59
2023-10-10T03:12:53.926Z,72.65
2023-10-10T03:15:22.803Z,72.45
2023-10-10T03:18:11.328Z,72.39
2023-10-10T03:20:39.925Z,72.42
2023-10-10T03:23:14.025Z,72.71
2023-10-10T03:25:52.934Z,72.98
2023-10-10T03:28:27.894Z,73.16
2023-10-10T03:31:07.058Z,73.26
2023-10-10T03:33:44.452Z,73.49
2023-10-10T03:36:24.715Z,73.54
2023-10-10T03:38:53.392Z,73.59
2023-10-10T03:41:24.334Z,73.30
2023-10-10T03:44:16.294Z,73.24
2023-10-10T03:46:58.998Z,73.46
2023-10-10T03:49:49.485Z,73.47
2023-10-10T03:52:36.183Z,73.73
2023-10-10T03:55:22.834Z,73.94
2023-10-10T03:58:29.279Z,74.03
2023-10-10T04:01:15.812Z,73.91
2023-10-10T04:04:02.452Z,74.25
2023-10-10T04:06:48.907Z,74.53
2023-10-10T04:09:35.784Z,74.66
2023-10-10T04:12:21.962Z,74.58
2023-10-10T04:15:08.506Z,74.59
2023-10-10T04:17:54.995Z,74.51
2023-10-10T04:20:41.848Z,74.62
2023-10-10T04:23:28.358Z,74.46
2023-10-10T04:26:20.528Z,74.21
2023-10-10T04:29:07.061Z,74.02
2023-10-10T04:31:54.058Z,73.67
2023-10-10T04:34:40.366Z,73.38
2023-10-10T04:37:26.718Z,73.14
2023-10-10T04:40:13.271Z,72.87
2023-10-10T04:43:10.151Z,72.96
2023-10-10T04:45:56.573Z,72.46
2023-10-10T04:48:42.987Z,72.73
2023-10-10T04:51:29.729Z,72.59
2023-10-10T04:54:16.144Z,72.09
2023-10-10T04:57:03.049Z,71.95
2023-10-10T04:59:49.546Z,71.61
2023-10-10T05:02:36.333Z,71.95
2023-10-10T05:05:23.338Z,72.38
2023-10-10T05:08:10.815Z,72.51
2023-10-10T05:11:00.262Z,72.15
2023-10-10T05:13:46.685Z,72.26
2023-10-10T05:16:33.551Z,72.55
2023-10-10T05:19:20.197Z,72.84
2023-10-10T05:22:06.698Z,73.17
2023-10-10T05:24:44.389Z,73.13
2023-10-10T05:27:12.676Z,73.03
2023-10-10T05:29:40.783Z,72.94
2023-10-10T05:32:09.948Z,72.87
2023-10-10T05:34:38.532Z,72.87
2023-10-10T05:37:08.348Z,73.06
2023-10-10T05:39:38.705Z,72.85
2023-10-10T05:42:10.122Z,73.16
2023-10-10T05:44:40.560Z,73.22
2023-10-10T05:47:08.623Z,73.18
2023-10-10T05:49:38.036Z,73.05
2023-10-10T05:52:08.216Z,73.10
2023-10-10T05:54:37.162Z,73.01
2023-10-10T05:57:07.103Z,72.50
2023-10-10T05:59:35.107Z,72.38
2023-10-10T06:02:03.324Z,72.64
2023-10-10T06:04:31.677Z,72.72
2023-10-10T06:07:00.569Z,72.60
2023-10-10T06:09:35.295Z,72.88
2023-10-10T06:12:06.024Z,72.97
2023-10-10T06:14:33.979Z,73.08
2023-10-10T06:17:01.931Z,72.93
2023-10-10T06:19:30.003Z,73.23
2023-10-10T06:22:03.739Z,73.19
2023-10-10T06:24:35.416Z,72.86
2023-10-10T06:27:03.680Z,72.76
2023-10-10T06:29:31.836Z,72.59
2023-10-10T06:31:59.686Z,72.28
2023-10-10T06:34:36.077Z,72.05
2023-10-10T06:37:09.798Z,72.05
2023-10-10T06:39:55.597Z,71.99
2023-10-10T06:42:31.058Z,71.97
2023-10-10T06:45:09.443Z,71.22
2023-10-10T06:47:48.623Z,70.40
2023-10-10T06:50:18.341Z,70.24
2023-10-10T06:52:46.659Z,69.57
2023-10-10T06:55:22.352Z,69.51
2023-10-10T06:58:00.524Z,69.44
2023-10-10T07:00:30.036Z,69.35
2023-10-10T07:02:58.946Z,68.43
2023-10-10T07:05:35.018Z,68.04
2023-10-10T07:08:20.800Z,67.09
2023-10-10T07:10:49.036Z,67.01
2023-10-10T07:13:20.184Z,66.21
2023-10-10T07:15:55.230Z,65.73
2023-10-10T07:18:26.997Z,65.51
2023-10-10T07:21:30.845Z,65.44
2023-10-10T07:24:06.542Z,65.12
2023-10-10T07:26:42.625Z,64.67
2023-10-10T07:29:43.796Z,64.19
2023-10-10T07:32:17.892Z,63.76
2023-10-10T07:34:52.871Z,63.47
2023-10-10T07:37:20.873Z,63.02
2023-10-10T07:39:58.547Z,62.77
2023-10-10T07:42:31.291Z,62.56
2023-10-10T07:44:59.663Z,61.99
2023-10-10T07:47:28.708Z,62.30
2023-10-10T07:49:57.847Z,63.07
2023-10-10T07:52:25.869Z,62.70
2023-10-10T07:54:55.247Z,61.78
2023-10-10T07:57:30.841Z,61.86
2023-10-10T08:00:00.255Z,61.96
2023-10-10T08:02:31.290Z,62.03
2023-10-10T08:05:02.602Z,62.12
2023-10-10T08:07:30.713Z,62.06
2023-10-10T08:10:17.604Z,62.78
2023-10-10T08:12:45.508Z,62.27
2023-10-10T08:15:26.166Z,61.24
2023-10-10T08:17:56.411Z,60.21
2023-10-10T08:20:44.734Z,59.88
2023-10-10T08:23:12.932Z,58.38
2023-10-10T08:25:41.169Z,58.27
2023-10-10T08:28:09.109Z,58.03
2023-10-10T08:30:37.026Z,57.96
2023-10-10T08:33:05.664Z,56.73
2023-10-10T08:35:40.610Z,56.51
2023-10-10T08:38:08.994Z,56.65
2023-10-10T08:40:37.892Z,56.45
2023-10-10T08:43:08.778Z,56.67
2023-10-10T08:45:45.350Z,56.21
2023-10-10T08:48:14.153Z,56.45
2023-10-10T08:50:43.733Z,56.72
2023-10-10T08:53:12.344Z,54.98
2023-10-10T08:55:41.976Z,54.04
2023-10-10T08:58:11.634Z,54.18
2023-10-10T09:00:40.551Z,54.34
2023-10-10T09:03:09.632Z,52.93
2023-10-10T09:05:38.509Z,51.42
2023-10-10T09:08:16.137Z,51.22
2023-10-10T09:10:44.845Z,50.82
2023-10-10T09:13:12.831Z,51.72
2023-10-10T09:16:14.537Z,52.65
2023-10-10T09:18:43.583Z,52.35
2023-10-10T09:21:19.802Z,50.37
2023-10-10T09:24:07.981Z,51.35
2023-10-10T09:26:37.973Z,50.74
2023-10-10T09:29:17.128Z,49.41
2023-10-10T09:31:47.378Z,46.65
2023-10-10T09:34:23.851Z,46.87
2023-10-10T09:36:57.762Z,45.00
2023-10-10T09:39:39.346Z,44.08
2023-10-10T09:42:24.496Z,43.91
2023-10-10T09:45:15.867Z,44.63
2023-10-10T09:47:57.170Z,45.14
2023-10-10T09:50:36.135Z,45.31
2023-10-10T09:53:07.839Z,45.40
2023-10-10T09:55:35.704Z,45.38
2023-10-10T09:58:06.962Z,46.14
2023-10-10T10:00:39.305Z,45.46
2023-10-10T10:03:30.623Z,44.72
2023-10-10T10:06:23.655Z,43.37
2023-10-10T10:09:10.575Z,44.03
2023-10-10T10:12:05.407Z,45.15
2023-10-10T10:14:48.673Z,43.97
2023-10-10T10:17:24.964Z,42.91
2023-10-10T10:20:05.004Z,43.07
2023-10-10T10:22:33.603Z,42.28
2023-10-10T10:25:26.838Z,42.33
2023-10-10T10:28:16.132Z,41.22
2023-10-10T10:30:52.132Z,39.63
2023-10-10T10:33:20.953Z,38.04
2023-10-10T10:35:52.713Z,36.41
2023-10-10T10:38:24.576Z,37.93
2023-10-10T10:41:06.379Z,35.13
2023-10-10T10:43:42.669Z,34.16
2023-10-10T10:46:29.111Z,34.52
2023-10-10T10:49:07.084Z,33.86
2023-10-10T10:51:43.042Z,33.14
2023-10-10T10:54:31.551Z,31.97
2023-10-10T10:57:04.567Z,31.25
2023-10-10T10:59:40.430Z,31.10
2023-10-10T11:02:27.036Z,30.42
2023-10-10T11:04:55.038Z,29.95
2023-10-10T11:07:42.430Z,30.23
2023-10-10T11:10:11.533Z,30.61
2023-10-10T11:12:39.682Z,31.48
2023-10-10T11:15:17.657Z,32.01
2023-10-10T11:17:53.076Z,32.80
2023-10-10T11:20:49.697Z,33.52
2023-10-10T11:23:18.031Z,33.26
2023-10-10T11:25:48.439Z,32.61
2023-10-10T11:28:25.951Z,31.37
2023-10-10T11:30:59.243Z,29.95
2023-10-10T11:33:47.674Z,28.71
2023-10-10T11:36:39.203Z,26.68
2023-10-10T11:39:33.485Z,26.03
2023-10-10T11:42:05.288Z,26.44
2023-10-10T11:44:34.937Z,26.19
2023-10-10T11:47:09.180Z,26.11
2023-10-10T11:49:37.871Z,27.09
2023-10-10T11:52:16.996Z,27.20
2023-10-10T11:54:46.314Z,26.08
2023-10-10T11:57:16.519Z,25.88
2023-10-10T11:59:48.480Z,24.74
2023-10-10T12:02:18.487Z,24.38
2023-10-10T12:04:46.582Z,23.72
2023-10-10T12:07:16.003Z,24.01
2023-10-10T12:09:46.498Z,24.33
2023-10-10T12:12:16.986Z,24.00
2023-10-10T12:14:45.238Z,24.82
2023-10-10T12:17:15.894Z,24.70
2023-10-10T12:19:45.362Z,25.51
2023-10-10T12:22:14.251Z,26.02
2023-10-10T12:24:43.067Z,26.23
2023-10-10T12:27:11.571Z,26.83
2023-10-10T12:29:41.485Z,25.61
2023-10-10T12:32:17.052Z,24.61
2023-10-10T12:34:47.322Z,23.52
2023-10-10T12:37:18.542Z,22.99
2023-10-10T12:39:47.263Z,22.41
2023-10-10T12:42:15.413Z,21.99
2023-10-10T12:44:49.589Z,21.49
2023-10-10T12:47:19.267Z,20.90
2023-10-10T12:49:47.368Z,20.35
2023-10-10T12:52:18.943Z,19.80
2023-10-10T12:54:48.958Z,19.27
2023-10-10T12:57:17.469Z,19.31
2023-10-10T12:59:48.032Z,18.81
2023-10-10T13:02:17.292Z,18.55
2023-10-10T13:04:49.814Z,18.53
2023-10-10T13:07:17.956Z,18.75
2023-10-10T13:09:48.293Z,18.57
2023-10-10T13:12:28.977Z,18.54
2023-10-10T13:15:17.171Z,18.69
2023-10-10T13:18:13.930Z,19.34
2023-10-10T13:20:42.963Z,19.71
2023-10-10T13:23:10.864Z,20.61
2023-10-10T13:25:39.096Z,21.58
2023-10-10T13:28:11.118Z,21.82
2023-10-10T13:30:41.583Z,22.59
2023-10-10T13:33:09.554Z,22.86
2023-10-10T13:35:38.362Z,23.22
2023-10-10T13:38:07.615Z,23.11
2023-10-10T13:40:39.155Z,23.78
2023-10-10T13:43:09.844Z,23.81
2023-10-10T13:45:39.527Z,23.46
2023-10-10T13:48:14.605Z,23.11
2023-10-10T13:50:43.060Z,22.74
2023-10-10T13:53:13.474Z,22.67
2023-10-10T13:55:42.616Z,22.31
2023-10-10T13:58:13.101Z,23.01
2023-10-10T14:00:43.133Z,23.50
2023-10-10T14:03:15.830Z,23.28
2023-10-10T14:06:02.272Z,23.64
2023-10-10T14:08:31.902Z,23.45
2023-10-10T14:11:00.768Z,23.58
2023-10-10T14:13:29.445Z,23.41
2023-10-10T14:15:58.018Z,23.77
2023-10-10T14:18:31.358Z,24.40
2023-10-10T14:21:08.931Z,25.23
2023-10-10T14:23:37.036Z,26.28
2023-10-10T14:26:14.522Z,26.87
2023-10-10T14:28:43.384Z,27.63
2023-10-10T14:31:14.562Z,28.42
2023-10-10T14:33:42.720Z,28.98
2023-10-10T14:36:12.683Z,30.24
2023-10-10T14:38:46.903Z,30.78
2023-10-10T14:41:18.615Z,31.09
2023-10-10T14:43:55.975Z,31.37
2023-10-10T14:46:25.808Z,31.69
2023-10-10T14:49:02.450Z,32.20
2023-10-10T14:51:35.552Z,32.65
2023-10-10T14:54:08.551Z,33.53
2023-10-10T14:56:37.791Z,33.90
2023-10-10T14:59:07.405Z,34.27
2023-10-10T15:01:36.145Z,35.04
2023-10-10T15:04:07.878Z,35.51
2023-10-10T15:06:36.233Z,36.28
2023-10-10T15:09:04.929Z,36.35
2023-10-10T15:11:34.536Z,36.68
2023-10-10T15:14:07.583Z,36.67
2023-10-10T15:16:37.267Z,37.58
2023-10-10T15:19:07.906Z,37.99
2023-10-10T15:21:37.010Z,38.40
2023-10-10T15:24:06.399Z,39.29
2023-10-10T15:26:36.061Z,39.74
2023-10-10T15:29:05.229Z,40.22
2023-10-10T15:31:33.485Z,39.56
2023-10-10T15:34:01.930Z,39.19
2023-10-10T15:36:33.107Z,38.98
2023-10-10T15:39:11.341Z,39.29
2023-10-10T15:41:42.182Z,40.52
2023-10-10T15:44:14.008Z,41.86
2023-10-10T15:46:44.868Z,42.84
2023-10-10T15:51:47.040Z,43.81
2023-10-10T15:54:16.412Z,44.29
2023-10-10T15:56:48.024Z,44.88
2023-10-10T15:59:16.463Z,45.67
2023-10-10T16:01:48.243Z,46.39
2023-10-10T16:04:18.865Z,46.64
2023-10-10T16:06:51.748Z,46.70
2023-10-10T16:09:31.971Z,47.43
2023-10-10T16:11:59.999Z,47.99
2023-10-10T16:14:28.196Z,48.48
2023-10-10T16:16:56.341Z,48.92
2023-10-10T16:19:27.402Z,49.49
2023-10-10T16:21:56.405Z,50.38
2023-10-10T16:24:29.248Z,50.79
2023-10-10T16:27:00.887Z,50.72
2023-10-10T16:29:35.871Z,50.94
2023-10-10T16:32:19.770Z,51.32
2023-10-10T16:34:48.916Z,51.64
2023-10-10T16:37:20.008Z,51.84
2023-10-10T16:39:48.361Z,51.73
2023-10-10T16:42:25.059Z,52.24
2023-10-10T16:44:55.001Z,52.34
2023-10-10T16:47:23.295Z,52.77
2023-10-10T16:49:51.965Z,53.32
2023-10-10T16:52:27.808Z,54.07
2023-10-10T16:54:58.504Z,54.27
2023-10-10T16:57:26.709Z,54.67
2023-10-10T16:59:57.980Z,54.78
2023-10-10T17:02:30.858Z,55.25
2023-10-10T17:05:02.329Z,55.83
2023-10-10T17:07:30.728Z,56.27
2023-10-10T17:09:58.964Z,56.69
2023-10-10T17:12:27.077Z,56.73
2023-10-10T17:14:55.058Z,57.22
2023-10-10T17:17:26.013Z,57.32
2023-10-10T17:19:54.372Z,57.50
2023-10-10T17:22:24.507Z,57.28
2023-10-10T17:24:54.581Z,57.57
2023-10-10T17:27:22.374Z,57.62
2023-10-10T17:29:52.688Z,57.98
2023-10-10T17:32:22.878Z,58.49
2023-10-10T17:34:50.887Z,58.30
2023-10-10T17:37:18.752Z,58.51
2023-10-10T17:39:49.511Z,58.73
2023-10-10T17:42:17.344Z,59.14
2023-10-10T17:44:46.133Z,59.63
2023-10-10T17:47:17.614Z,59.83
2023-10-10T17:49:46.168Z,60.30
2023-10-10T17:52:14.501Z,59.98
2023-10-10T17:54:44.094Z,60.22
2023-10-10T17:57:14.355Z,60.48
2023-10-10T17:59:42.395Z,60.12
2023-10-10T18:02:10.569Z,59.98
2023-10-10T18:04:43.161Z,59.88
2023-10-10T18:07:11.735Z,60.22
2023-10-10T18:09:40.833Z,60.63
2023-10-10T18:12:13.076Z,60.56
2023-10-10T18:14:41.687Z,60.19
2023-10-10T18:17:12.648Z,60.39
2023-10-10T18:19:42.979Z,60.66
2023-10-10T18:22:11.075Z,61.05
2023-10-10T18:24:39.038Z,61.24
2023-10-10T18:27:07.344Z,60.92
2023-10-10T18:29:41.203Z,60.97
2023-10-10T18:32:13.847Z,61.00
2023-10-10T18:34:43.163Z,61.13
2023-10-10T18:37:17.161Z,61.50
2023-10-10T18:39:54.184Z,61.73
2023-10-10T18:42:22.029Z,61.68
2023-10-10T18:44:49.856Z,61.86
2023-10-10T18:47:19.313Z,61.88
2023-10-10T18:49:48.900Z,61.99
2023-10-10T18:52:20.596Z,62.29
2023-10-10T18:54:53.618Z,62.47
2023-10-10T18:57:23.886Z,62.46
2023-10-10T18:59:51.955Z,62.82
2023-10-10T19:02:23.958Z,63.21
2023-10-10T19:04:54.588Z,63.30
2023-10-10T19:07:25.199Z,63.03
2023-10-10T19:09:53.075Z,63.46
2023-10-10T19:12:21.934Z,63.71
2023-10-10T19:14:49.757Z,63.86
2023-10-10T19:17:20.414Z,63.57
2023-10-10T19:19:49.129Z,64.03
2023-10-10T19:22:17.178Z,64.35
2023-10-10T19:24:45.033Z,64.91
2023-10-10T19:27:13.794Z,64.95
2023-10-10T19:29:42.829Z,64.92
2023-10-10T19:32:11.006Z,64.49
2023-10-10T19:34:39.266Z,64.08
2023-10-10T19:37:10.416Z,64.31
2023-10-10T19:39:38.356Z,64.56
2023-10-10T19:42:07.744Z,64.94
2023-10-10T19:44:35.865Z,64.82
2023-10-10T19:47:08.499Z,64.79
2023-10-10T19:49:36.825Z,65.20
2023-10-10T19:52:06.535Z,65.35
2023-10-10T19:54:36.272Z,65.46
2023-10-10T19:57:04.252Z,65.34
2023-10-10T19:59:32.325Z,65.48
2023-10-10T20:02:00.487Z,65.75
2023-10-10T20:04:28.632Z,65.78
2023-10-10T20:06:56.914Z,65.87
2023-10-10T20:09:24.878Z,65.79
2023-10-10T20:11:52.991Z,65.89
2023-10-10T20:14:21.122Z,66.16
2023-10-10T20:16:51.143Z,66.57
2023-10-10T20:19:20.851Z,66.78
2023-10-10T20:21:49.235Z,66.53
2023-10-10T20:24:17.169Z,66.43
2023-10-10T20:26:45.197Z,66.57
2023-10-10T20:29:13.107Z,66.57
2023-10-10T20:31:41.098Z,66.81
2023-10-10T20:34:09.161Z,66.89
2023-10-10T20:36:38.091Z,67.18
2023-10-10T20:39:07.752Z,67.19
2023-10-10T20:41:35.848Z,67.12
2023-10-10T20:44:04.108Z,67.26
2023-10-10T20:46:32.906Z,67.14
2023-10-10T20:49:01.927Z,67.31
2023-10-10T20:51:29.793Z,67.51
2023-10-10T20:53:58.137Z,67.62
2023-10-10T20:56:26.180Z,67.48
2023-10-10T20:58:54.503Z,67.53
2023-10-10T21:01:25.209Z,67.54
2023-10-10T21:03:53.213Z,67.72
2023-10-10T21:06:21.892Z,67.79
2023-10-10T21:08:50.625Z,67.54
2023-10-10T21:11:18.851Z,67.73
2023-10-10T21:13:48.163Z,67.82
2023-10-10T21:16:16.480Z,68.05
2023-10-10T21:18:46.241Z,67.86
2023-10-10T21:21:15.690Z,67.78
2023-10-10T21:23:44.402Z,67.73
2023-10-10T21:26:15.108Z,67.63
2023-10-10T21:28:44.421Z,67.59
2023-10-10T21:31:13.120Z,67.54
2023-10-10T21:33:42.770Z,67.30
2023-10-10T21:36:14.317Z,67.36
2023-10-10T21:38:43.618Z,67.54
2023-10-10T21:41:12.766Z,67.58
2023-10-10T21:43:41.023Z,67.81
2023-10-10T21:46:09.138Z,68.06
2023-10-10T21:48:37.549Z,68.42
2023-10-10T21:51:08.265Z,68.72
2023-10-10T21:53:37.957Z,69.07
2023-10-10T21:56:07.022Z,69.36
2023-10-10T21:58:35.670Z,69.16
2023-10-10T22:01:04.778Z,69.24
2023-10-10T22:03:33.589Z,69.51
2023-10-10T22:06:01.741Z,69.54
2023-10-10T22:08:31.534Z,69.77
2023-10-10T22:11:03.442Z,69.62
2023-10-10T22:13:31.617Z,69.57
2023-10-10T22:15:59.681Z,69.80
2023-10-10T22:18:31.407Z,69.93
2023-10-10T22:21:00.754Z,70.02
2023-10-10T22:23:29.185Z,70.11
2023-10-10T22:26:00.227Z,69.93
2023-10-10T22:28:36.393Z,70.11
2023-10-10T22:31:12.063Z,70.14
2023-10-10T22:33:40.220Z,70.02
2023-10-10T22:36:15.762Z,69.89
2023-10-10T22:38:46.539Z,69.61
2023-10-10T22:41:15.648Z,69.80
2023-10-10T22:43:45.603Z,69.98
2023-10-10T22:46:14.442Z,69.95
2023-10-10T22:48:44.533Z,69.94
2023-10-10T22:51:14.543Z,70.19
2023-10-10T22:53:43.662Z,70.12
2023-10-10T22:56:13.091Z,70.12
2023-10-10T22:58:44.033Z,70.09
2023-10-10T23:01:16.310Z,70.17
2023-10-10T23:03:46.975Z,70.11
2023-10-10T23:06:15.067Z,69.97
2023-10-10T23:08:43.470Z,69.90
2023-10-10T23:11:14.710Z,70.07
2023-10-10T23:13:43.468Z,70.08
2023-10-10T23:16:16.986Z,70.21
2023-10-10T23:18:46.925Z,70.17
2023-10-10T23:21:15.091Z,70.10
2023-10-10T23:23:43.159Z,70.05
2023-10-10T23:26:11.351Z,70.13
2023-10-10T23:28:39.465Z,70.08
2023-10-10T23:31:08.332Z,69.92
2023-10-10T23:33:36.729Z,69.89
2023-10-10T23:36:07.954Z,69.91
2023-10-10T23:38:36.243Z,70.03
2023-10-10T23:41:05.693Z,69.98
2023-10-10T23:43:38.403Z,69.97
2023-10-10T23:46:07.794Z,70.05
2023-10-10T23:48:37.240Z,69.90
2023-10-10T23:51:08.599Z,69.53
2023-10-10T23:53:38.034Z,69.66
2023-10-10T23:56:06.905Z,69.72
2023-10-10T23:58:36.442Z,69.67
